Time;durP1;ratioP1;P1;durP2;ratioP2;P2;SDS_P1;SDS_P2;PMS_P1;PMS_P2;Temp;Humidity;BMP_temperature;BMP_pressure;BME280_temperature;BME280_humidity;BME280_pressure;Samples;Min_cycle;Max_cycle;Signal;HPM_P1;HPM_P2
2022/05/10 00:00:32;;;;;;;5.43;2.28;;;16.30;1.00;;;;;;6217250;23;20020;-90
2022/05/10 00:03:01;;;;;;;4.47;2.72;;;16.30;1.00;;;;;;6217887;23;20032;-89
2022/05/10 00:05:34;;;;;;;2.67;2.35;;;16.20;1.00;;;;;;6217417;23;20028;-90
2022/05/10 00:08:03;;;;;;;6.68;2.40;;;16.20;1.00;;;;;;6218067;23;20020;-89
2022/05/10 00:10:30;;;;;;;4.22;2.28;;;16.20;1.00;;;;;;6217355;23;20351;-90
2022/05/10 00:12:59;;;;;;;6.28;2.63;;;16.20;1.00;;;;;;6217177;23;20031;-91
2022/05/10 00:15:26;;;;;;;3.70;2.22;;;16.10;1.00;;;;;;6217360;23;20099;-90
2022/05/10 00:17:54;;;;;;;4.80;2.63;;;16.10;1.00;;;;;;6217686;23;20351;-90
2022/05/10 00:20:24;;;;;;;6.85;3.10;;;16.10;1.00;;;;;;6192550;23;20455;-90
2022/05/10 00:22:51;;;;;;;4.10;2.92;;;16.10;1.00;;;;;;6191944;23;20363;-89
2022/05/10 00:25:24;;;;;;;4.65;3.08;;;16.10;1.00;;;;;;6216905;23;20019;-89
2022/05/10 00:27:51;;;;;;;3.83;2.70;;;16.10;1.00;;;;;;6192305;23;20383;-88
2022/05/10 00:30:18;;;;;;;4.32;2.40;;;16.00;1.00;;;;;;6217252;23;20016;-89
2022/05/10 00:32:46;;;;;;;5.75;2.42;;;16.00;1.00;;;;;;6243968;23;20448;-90
2022/05/10 00:35:17;;;;;;;5.45;1.90;;;16.00;1.00;;;;;;6192863;23;20024;-91
2022/05/10 00:37:47;;;;;;;3.42;2.25;;;16.00;1.00;;;;;;6218093;23;20071;-91
2022/05/10 00:40:20;;;;;;;6.28;2.70;;;16.00;1.00;;;;;;6217476;23;20725;-90
2022/05/10 00:42:59;;;;;;;5.50;3.10;;;15.90;1.00;;;;;;6217286;23;20360;-91
2022/05/10 00:45:35;;;;;;;12.02;4.25;;;16.00;1.00;;;;;;6192982;23;20047;-91
2022/05/10 00:48:32;;;;;;;4.78;2.45;;;15.90;1.00;;;;;;6217721;23;20340;-90
2022/05/10 00:51:11;;;;;;;4.80;2.95;;;15.90;1.00;;;;;;6192704;23;20020;-90
2022/05/10 00:54:05;;;;;;;4.93;2.30;;;15.90;1.00;;;;;;6192513;23;20017;-90
2022/05/10 00:56:46;;;;;;;5.35;2.25;;;15.90;1.00;;;;;;6192616;23;20023;-90
2022/05/10 00:59:26;;;;;;;13.35;4.53;;;15.80;1.00;;;;;;6244109;23;20020;-90
2022/05/10 01:01:59;;;;;;;5.05;2.60;;;15.80;1.00;;;;;;6217004;23;20030;-91
2022/05/10 01:04:43;;;;;;;4.57;3.00;;;15.80;1.00;;;;;;6217773;23;20047;-90
2022/05/10 01:07:13;;;;;;;5.38;2.45;;;15.80;1.00;;;;;;6192141;23;20026;-91
2022/05/10 01:09:54;;;;;;;3.85;2.30;;;15.80;1.00;;;;;;6217067;23;20020;-91
2022/05/10 01:12:25;;;;;;;6.85;2.67;;;15.70;1.00;;;;;;6217086;23;20416;-91
2022/05/10 01:15:05;;;;;;;3.75;2.30;;;15.70;1.00;;;;;;6192048;23;20563;-90
2022/05/10 01:17:33;;;;;;;5.85;3.03;;;15.70;1.00;;;;;;6192071;23;20066;-90
2022/05/10 01:20:02;;;;;;;3.47;2.33;;;15.70;1.00;;;;;;6216960;23;20019;-90
2022/05/10 01:22:46;;;;;;;6.13;2.38;;;15.70;1.00;;;;;;6216029;23;20020;-90
2022/05/10 01:25:29;;;;;;;;;;;15.60;1.00;;;;;;6243731;22;20301;-90
2022/05/10 01:28:33;;;;;;;5.43;3.30;;;15.60;1.00;;;;;;6216444;23;19916;-89
2022/05/10 01:31:05;;;;;;;10.63;3.75;;;15.60;1.00;;;;;;6216979;23;20059;-90
2022/05/10 01:33:40;;;;;;;4.43;2.45;;;15.50;1.00;;;;;;6192667;23;20380;-90
2022/05/10 01:36:28;;;;;;;8.80;3.67;;;15.50;1.00;;;;;;6217265;23;20023;-90
2022/05/10 01:39:18;;;;;;;7.07;3.20;;;15.50;1.00;;;;;;6191646;23;20047;-90
2022/05/10 01:42:08;;;;;;;7.22;3.35;;;15.40;1.00;;;;;;6191488;23;20090;-89
2022/05/10 01:44:52;;;;;;;9.02;3.53;;;15.50;1.00;;;;;;6191220;23;20098;-89
2022/05/10 01:47:29;;;;;;;5.75;2.58;;;15.50;1.00;;;;;;6192110;23;20020;-89
2022/05/10 01:50:23;;;;;;;4.93;2.03;;;15.40;1.00;;;;;;6216677;23;20036;-90
2022/05/10 01:53:16;;;;;;;12.40;3.45;;;15.40;1.00;;;;;;6216764;23;20036;-90
2022/05/10 01:55:52;;;;;;;4.88;2.83;;;15.40;1.00;;;;;;6191560;23;20048;-91
2022/05/10 01:58:28;;;;;;;5.47;2.75;;;15.40;1.00;;;;;;6167684;23;20043;-91
2022/05/10 02:01:05;;;;;;;5.38;2.72;;;15.40;1.00;;;;;;6216455;23;20111;-89
2022/05/10 02:03:57;;;;;;;6.28;2.78;;;15.40;1.00;;;;;;6216657;23;20359;-89
2022/05/10 02:06:51;;;;;;;5.28;3.08;;;15.30;1.00;;;;;;6191616;23;20026;-90
2022/05/10 02:09:29;;;;;;;5.32;3.20;;;15.20;1.00;;;;;;6216203;23;20731;-90
2022/05/10 02:12:12;;;;;;;7.20;2.90;;;15.20;1.00;;;;;;6216162;23;20067;-89
2022/05/10 02:14:45;;;;;;;4.32;2.38;;;15.30;1.00;;;;;;6216333;23;20024;-91
2022/05/10 02:17:20;;;;;;;7.78;3.25;;;15.30;1.00;;;;;;6216906;23;20099;-89
2022/05/10 02:20:13;;;;;;;6.65;2.67;;;15.30;1.00;;;;;;6194014;23;20054;-90
2022/05/10 02:22:49;;;;;;;5.73;2.60;;;15.20;1.00;;;;;;6249064;23;20372;-89
2022/05/10 02:25:33;;;;;;;5.63;2.63;;;15.20;1.00;;;;;;6225546;23;20024;-89
2022/05/10 02:28:35;;;;;;;4.03;2.00;;;15.20;1.00;;;;;;6227388;23;20067;-88
2022/05/10 02:31:08;;;;;;;7.40;2.33;;;15.10;1.00;;;;;;6195496;23;20074;-89
2022/05/10 02:33:36;;;;;;;7.18;3.25;;;15.20;1.00;;;;;;6219398;23;20016;-90
2022/05/10 02:36:04;;;;;;;7.65;2.90;;;15.10;1.00;;;;;;6194493;23;20028;-91
2022/05/10 02:38:37;;;;;;;5.00;2.08;;;15.10;1.00;;;;;;6218562;23;20359;-90
2022/05/10 02:41:13;;;;;;;6.28;3.88;;;15.10;1.00;;;;;;6218433;23;20023;-90
2022/05/10 02:43:49;;;;;;;4.75;2.72;;;15.10;1.00;;;;;;6218978;23;20020;-90
2022/05/10 02:46:17;;;;;;;4.47;2.25;;;15.10;1.00;;;;;;6194232;23;20024;-91
2022/05/10 02:48:47;;;;;;;6.38;2.80;;;15.00;1.00;;;;;;6193706;23;20035;-90
2022/05/10 02:51:15;;;;;;;7.97;2.80;;;15.00;1.00;;;;;;6193560;23;20062;-89
2022/05/10 02:53:42;;;;;;;8.43;3.17;;;15.00;1.00;;;;;;6217512;23;20024;-89
2022/05/10 02:56:13;;;;;;;9.13;3.10;;;15.00;1.00;;;;;;6217984;23;20020;-89
2022/05/10 02:59:07;;;;;;;9.80;3.05;;;15.00;1.00;;;;;;6218424;23;20020;-89
2022/05/10 03:01:57;;;;;;;5.80;2.97;;;15.00;1.00;;;;;;6218108;23;20051;-89
2022/05/10 03:04:36;;;;;;;7.13;3.42;;;15.00;1.00;;;;;;6193265;23;20107;-89
2022/05/10 03:07:05;;;;;;;3.35;2.30;;;14.90;1.00;;;;;;6218552;23;20028;-90
2022/05/10 03:09:32;;;;;;;5.30;2.65;;;14.90;1.00;;;;;;6225632;23;20053;-90
2022/05/10 03:12:01;;;;;;;8.45;3.63;;;15.00;1.00;;;;;;6227499;23;20028;-89
2022/05/10 03:14:28;;;;;;;4.05;2.80;;;14.90;1.00;;;;;;6198300;23;20020;-89
2022/05/10 03:16:55;;;;;;;9.50;3.15;;;15.00;1.00;;;;;;6194144;23;20268;-89
2022/05/10 03:19:22;;;;;;;3.53;2.50;;;14.90;1.00;;;;;;6219254;23;20044;-89
2022/05/10 03:21:52;;;;;;;5.68;2.85;;;14.90;1.00;;;;;;6217706;23;20020;-90
2022/05/10 03:24:18;;;;;;;7.70;2.90;;;14.90;1.00;;;;;;6192527;23;20024;-90
2022/05/10 03:26:50;;;;;;;7.28;3.20;;;14.90;1.00;;;;;;6192726;23;20020;-89
2022/05/10 03:29:19;;;;;;;3.08;1.77;;;14.80;1.00;;;;;;6217691;23;20024;-90
2022/05/10 03:31:48;;;;;;;9.10;3.75;;;14.90;1.00;;;;;;6218277;23;20020;-90
2022/05/10 03:37:04;;;;;;;7.20;3.40;;;14.80;1.00;;;;;;6243450;23;20099;-90
2022/05/10 03:39:31;;;;;;;9.48;4.22;;;14.80;1.00;;;;;;6168317;23;20023;-90
2022/05/10 03:41:58;;;;;;;5.50;3.22;;;14.80;1.00;;;;;;6216988;23;20321;-89
2022/05/10 03:44:25;;;;;;;6.18;3.35;;;14.80;1.00;;;;;;6192034;23;20047;-89
2022/05/10 03:46:52;;;;;;;12.38;4.45;;;14.70;1.00;;;;;;6193306;23;20055;-89
2022/05/10 03:49:19;;;;;;;7.32;3.08;;;14.70;1.00;;;;;;6192595;23;20691;-89
2022/05/10 03:51:46;;;;;;;6.28;3.78;;;14.70;1.00;;;;;;6216971;23;20020;-90
2022/05/10 03:54:13;;;;;;;8.38;3.13;;;14.70;1.00;;;;;;6216741;23;20107;-90
2022/05/10 03:56:40;;;;;;;7.10;3.15;;;14.70;1.00;;;;;;6244159;23;20124;-90
2022/05/10 03:59:10;;;;;;;4.43;2.92;;;14.70;1.00;;;;;;6192189;23;20024;-90
2022/05/10 04:01:37;;;;;;;6.78;3.28;;;14.70;1.00;;;;;;6217685;23;20099;-89
2022/05/10 04:04:04;;;;;;;6.82;3.75;;;14.70;1.00;;;;;;6216862;22;20038;-90
2022/05/10 04:06:58;;;;;;;5.88;3.75;;;14.70;1.00;;;;;;6217130;23;20036;-91
2022/05/10 04:09:33;;;;;;;8.80;4.35;;;14.70;1.00;;;;;;6212983;23;20024;-90
2022/05/10 04:12:00;;;;;;;6.90;3.60;;;14.70;1.00;;;;;;6217881;23;20028;-91
2022/05/10 04:14:28;;;;;;;4.47;3.03;;;14.70;1.00;;;;;;6193356;23;20020;-90
2022/05/10 04:16:58;;;;;;;11.10;4.15;;;14.70;1.00;;;;;;6217113;23;20119;-91
2022/05/10 04:19:33;;;;;;;5.72;2.78;;;14.70;1.00;;;;;;6243524;23;20020;-91
2022/05/10 04:22:01;;;;;;;7.47;4.25;;;14.70;1.00;;;;;;6215478;23;20031;-89
2022/05/10 04:41:30;;;;;;;11.13;4.03;;;14.70;1.00;;;;;;6096441;23;20538;-93
2022/05/10 04:44:09;;;;;;;9.48;4.80;;;14.80;1.00;;;;;;6080758;23;20036;-90
2022/05/10 04:46:37;;;;;;;;;;;14.70;1.00;;;;;;6127103;23;20475;-90
2022/05/10 04:49:06;;;;;;;6.43;3.72;;;14.80;1.00;;;;;;6125623;23;19991;-89
2022/05/10 04:51:35;;;;;;;8.25;3.83;;;14.80;1.00;;;;;;6126930;23;20181;-90
2022/05/10 04:54:03;;;;;;;10.00;3.95;;;14.80;1.00;;;;;;6102130;23;20449;-89
2022/05/10 04:56:30;;;;;;;9.20;3.60;;;14.80;1.00;;;;;;6102481;23;20145;-90
2022/05/10 04:58:57;;;;;;;5.85;3.85;;;14.80;1.00;;;;;;6126843;23;20092;-90
2022/05/10 05:01:27;;;;;;;7.22;3.53;;;14.80;1.00;;;;;;6126487;23;20026;-90
2022/05/10 05:04:00;;;;;;;5.95;4.13;;;14.80;1.00;;;;;;6102528;23;20025;-90
2022/05/10 05:06:28;;;;;;;8.90;3.85;;;14.90;1.00;;;;;;6169738;23;20350;-90
2022/05/10 05:08:56;;;;;;;8.38;3.92;;;14.90;1.00;;;;;;6217126;23;20354;-90
2022/05/10 05:11:24;;;;;;;12.07;4.88;;;14.90;1.00;;;;;;6218265;23;20023;-90
2022/05/10 05:13:52;;;;;;;7.22;4.05;;;15.00;1.00;;;;;;6244337;23;20095;-90
2022/05/10 05:16:19;;;;;;;9.45;3.97;;;15.00;1.00;;;;;;6218096;23;20020;-90
2022/05/10 05:18:46;;;;;;;9.98;4.70;;;15.00;1.00;;;;;;6216957;23;20054;-89
2022/05/10 05:21:13;;;;;;;8.85;3.78;;;15.00;1.00;;;;;;6192297;23;20024;-90
2022/05/10 05:23:40;;;;;;;9.27;4.32;;;15.10;1.00;;;;;;6217083;23;20024;-89
2022/05/10 05:26:07;;;;;;;8.30;3.78;;;15.10;1.00;;;;;;6192645;23;20043;-89
2022/05/10 05:28:34;;;;;;;9.90;4.15;;;15.10;1.00;;;;;;6191923;23;20026;-90
2022/05/10 05:31:02;;;;;;;8.70;4.10;;;15.20;1.00;;;;;;6192331;23;20506;-89
2022/05/10 05:33:31;;;;;;;10.73;4.20;;;15.20;1.00;;;;;;6244419;23;20016;-90
2022/05/10 05:35:58;;;;;;;8.75;4.22;;;15.30;1.00;;;;;;6192628;23;20040;-89
2022/05/10 05:38:26;;;;;;;12.63;4.70;;;15.30;1.00;;;;;;6192399;23;20020;-89
2022/05/10 05:40:54;;;;;;;8.60;4.65;;;15.30;1.00;;;;;;6217799;23;20099;-89
2022/05/10 05:43:22;;;;;;;7.28;4.47;;;15.40;1.00;;;;;;6192073;23;20031;-90
2022/05/10 05:45:50;;;;;;;8.88;4.07;;;15.40;1.00;;;;;;6216879;23;20028;-89
2022/05/10 05:48:18;;;;;;;7.88;3.85;;;15.50;1.00;;;;;;6192165;23;20078;-89
2022/05/10 05:50:45;;;;;;;11.25;3.97;;;15.50;1.00;;;;;;6192106;23;20119;-90
2022/05/10 05:53:17;;;;;;;8.18;4.18;;;15.50;1.00;;;;;;6193650;23;20023;-90
2022/05/10 05:55:48;;;;;;;7.65;4.47;;;15.50;1.00;;;;;;6245897;23;20030;-90
2022/05/10 05:58:16;;;;;;;9.98;4.97;;;15.50;1.00;;;;;;6219235;23;20032;-89
2022/05/10 06:00:43;;;;;;;11.27;4.75;;;15.50;1.00;;;;;;6194161;23;20026;-89
2022/05/10 06:03:10;;;;;;;7.13;4.38;;;15.60;1.00;;;;;;6194039;23;20034;-89
2022/05/10 06:05:37;;;;;;;10.80;5.20;;;15.60;1.00;;;;;;6219389;23;20119;-90
2022/05/10 06:08:06;;;;;;;12.57;5.45;;;15.60;1.00;;;;;;6193895;23;20028;-89
2022/05/10 06:10:33;;;;;;;10.18;4.53;;;15.70;1.00;;;;;;6218996;23;20343;-90
2022/05/10 06:13:01;;;;;;;9.55;4.78;;;15.80;1.00;;;;;;6218551;23;20043;-90
2022/05/10 06:15:30;;;;;;;10.50;4.93;;;15.80;1.00;;;;;;6245916;23;20320;-88
2022/05/10 06:17:58;;;;;;;8.48;5.32;;;15.80;1.00;;;;;;6219748;23;20042;-89
2022/05/10 06:20:26;;;;;;;6.70;4.47;;;15.90;1.00;;;;;;6246630;23;20027;-90
2022/05/10 06:22:53;;;;;;;7.78;4.88;;;15.90;1.00;;;;;;6219011;23;20023;-90
2022/05/10 06:25:22;;;;;;;9.35;5.07;;;16.00;1.00;;;;;;6218845;23;20012;-90
2022/05/10 06:27:50;;;;;;;12.55;4.80;;;16.00;1.00;;;;;;6245356;23;20093;-91
2022/05/10 06:30:19;;;;;;;8.15;4.70;;;16.10;1.00;;;;;;6219040;23;20016;-90
2022/05/10 06:32:46;;;;;;;8.93;5.43;;;16.10;1.00;;;;;;6193511;23;20107;-90
2022/05/10 06:35:14;;;;;;;10.93;4.93;;;16.30;1.00;;;;;;6193540;23;20012;-89
2022/05/10 06:40:33;;;;;;;11.85;4.50;;;16.40;1.00;;;;;;6218435;23;20043;-89
2022/05/10 06:43:01;;;;;;;12.73;5.30;;;16.50;1.00;;;;;;6245366;23;20444;-91
2022/05/10 06:45:31;;;;;;;10.88;5.25;;;16.60;1.00;;;;;;6194139;23;20026;-90
2022/05/10 06:47:59;;;;;;;10.35;5.15;;;16.60;1.00;;;;;;6193553;23;20024;-90
2022/05/10 06:50:27;;;;;;;13.38;5.25;;;16.70;1.00;;;;;;6245571;23;20419;-91
2022/05/10 06:52:59;;;;;;;5.43;3.80;;;16.70;1.00;;;;;;6217702;23;20099;-90
2022/05/10 06:55:29;;;;;;;14.35;4.50;;;16.80;1.00;;;;;;6193481;23;20474;-90
2022/05/10 06:57:56;;;;;;;23.63;4.25;;;17.10;1.00;;;;;;6193652;23;20030;-90
2022/05/10 07:00:35;;;;;;;10.02;3.65;;;17.30;1.00;;;;;;6218273;23;20021;-90
2022/05/10 07:03:15;;;;;;;10.10;3.60;;;17.30;1.00;;;;;;6193944;23;20402;-91
2022/05/10 07:05:44;;;;;;;5.32;2.40;;;17.50;1.00;;;;;;6245268;23;20320;-89
2022/05/10 07:08:12;;;;;;;6.55;3.47;;;17.40;1.00;;;;;;6217893;23;20478;-91
2022/05/10 07:10:39;;;;;;;8.05;3.72;;;17.40;1.00;;;;;;6193237;23;20070;-90
2022/05/10 07:13:07;;;;;;;10.25;3.97;;;17.30;1.00;;;;;;6218343;23;20099;-90
2022/05/10 07:15:35;;;;;;;13.68;3.83;;;17.60;1.00;;;;;;6217740;23;20066;-90
2022/05/10 07:18:01;;;;;;;17.05;4.68;;;17.70;1.00;;;;;;6217978;23;20058;-90
2022/05/10 07:20:29;;;;;;;12.45;4.78;;;17.70;1.00;;;;;;6218673;23;20024;-90
2022/05/10 07:22:56;;;;;;;8.30;3.05;;;17.60;1.00;;;;;;6217657;23;20020;-91
2022/05/10 07:25:25;;;;;;;13.55;4.22;;;17.50;1.00;;;;;;6217784;22;20509;-90
2022/05/10 07:27:52;;;;;;;15.48;4.05;;;17.30;1.00;;;;;;6244646;23;20043;-90
2022/05/10 07:30:20;;;;;;;11.90;4.35;;;17.30;1.00;;;;;;6217972;23;20036;-90
2022/05/10 07:32:48;;;;;;;12.23;4.15;;;17.40;1.00;;;;;;6217823;23;20074;-90
2022/05/10 07:35:16;;;;;;;15.98;4.60;;;17.40;1.00;;;;;;6218439;23;20035;-89
2022/05/10 07:37:44;;;;;;;12.30;4.07;;;17.40;1.00;;;;;;6218425;23;20095;-90
2022/05/10 07:40:11;;;;;;;10.65;3.88;;;17.40;1.00;;;;;;6218011;23;20016;-89
2022/05/10 07:42:40;;;;;;;8.40;3.83;;;17.30;1.00;;;;;;6194003;23;20016;-88
2022/05/10 07:45:09;;;;;;;11.13;4.30;;;17.30;1.00;;;;;;6193796;23;20089;-89
2022/05/10 07:47:39;;;;;;;7.60;3.75;;;17.40;1.00;;;;;;6246362;23;20024;-91
2022/05/10 07:50:07;;;;;;;11.98;3.88;;;17.40;1.00;;;;;;6246249;23;20107;-89
2022/05/10 07:52:35;;;;;;;17.17;4.85;;;17.50;1.00;;;;;;6244462;23;20016;-91
2022/05/10 07:55:02;;;;;;;6.85;4.20;;;17.60;1.00;;;;;;6220076;23;20095;-89
2022/05/10 07:57:30;;;;;;;11.40;4.97;;;17.60;1.00;;;;;;6225710;23;20028;-90
2022/05/10 07:59:57;;;;;;;11.15;4.88;;;17.60;1.00;;;;;;6228728;23;20015;-90
2022/05/10 08:02:25;;;;;;;8.55;4.28;;;17.60;1.00;;;;;;6253692;23;20485;-91
2022/05/10 08:04:52;;;;;;;9.52;4.15;;;17.70;1.00;;;;;;6218365;23;20032;-90
2022/05/10 08:07:19;;;;;;;10.63;5.22;;;17.60;1.00;;;;;;6193069;23;20439;-91
2022/05/10 08:09:46;;;;;;;12.85;5.22;;;17.70;1.00;;;;;;6218127;23;20051;-90
2022/05/10 08:12:12;;;;;;;8.73;5.10;;;17.70;1.00;;;;;;6192513;23;20470;-90
2022/05/10 08:14:40;;;;;;;14.45;5.63;;;17.80;1.00;;;;;;6243436;23;20030;-90
2022/05/10 08:17:07;;;;;;;15.32;6.03;;;17.90;1.00;;;;;;6217568;23;20020;-90
2022/05/10 08:19:33;;;;;;;7.95;3.92;;;17.90;1.00;;;;;;6244567;23;20440;-90
2022/05/10 08:22:00;;;;;;;14.65;5.30;;;17.80;1.00;;;;;;6192759;23;20035;-88
2022/05/10 08:24:27;;;;;;;15.68;5.57;;;17.90;1.00;;;;;;6217773;23;20509;-89
2022/05/10 08:26:55;;;;;;;15.27;5.70;;;17.90;1.00;;;;;;6192203;23;20467;-90
2022/05/10 08:29:22;;;;;;;12.55;4.78;;;17.90;1.00;;;;;;6217861;23;20074;-89
2022/05/10 08:31:49;;;;;;;11.55;5.68;;;17.90;1.00;;;;;;6142607;23;20351;-90
2022/05/10 08:34:16;;;;;;;9.93;5.07;;;18.00;1.00;;;;;;6217444;23;20016;-89
2022/05/10 08:36:46;;;;;;;12.48;5.18;;;18.00;1.00;;;;;;6244472;23;20503;-89
2022/05/10 08:39:13;;;;;;;12.30;4.97;;;18.00;1.00;;;;;;6217667;23;20054;-90
2022/05/10 08:41:57;;;;;;;14.40;5.82;;;18.00;1.00;;;;;;6217477;23;20027;-90
2022/05/10 08:44:28;;;;;;;10.88;4.80;;;18.00;1.00;;;;;;6244675;23;20497;-90
2022/05/10 08:47:03;;;;;;;15.23;5.47;;;17.90;1.00;;;;;;6244448;23;20040;-89
2022/05/10 08:49:36;;;;;;;10.25;4.75;;;17.90;1.00;;;;;;6192815;23;20448;-90
2022/05/10 08:52:05;;;;;;;14.50;4.95;;;17.90;1.00;;;;;;6217734;23;20044;-91
2022/05/10 08:54:36;;;;;;;9.85;4.38;;;17.80;1.00;;;;;;6217739;23;20040;-88
2022/05/10 08:57:09;;;;;;;8.13;4.60;;;17.70;1.00;;;;;;6244554;23;20095;-90
2022/05/10 08:59:56;;;;;;;8.70;4.95;;;17.70;1.00;;;;;;6217402;23;20119;-90
2022/05/10 09:02:36;;;;;;;11.55;5.78;;;17.70;1.00;;;;;;6192042;23;20086;-90
2022/05/10 09:05:15;;;;;;;13.32;4.88;;;17.60;1.00;;;;;;6243839;23;20094;-89
2022/05/10 09:08:01;;;;;;;9.75;5.00;;;17.60;1.00;;;;;;6217757;23;20035;-88
2022/05/10 09:10:46;;;;;;;8.32;3.58;;;17.60;1.00;;;;;;6218055;23;20027;-91
2022/05/10 09:13:16;;;;;;;10.73;4.90;;;17.60;1.00;;;;;;6216991;23;20077;-90
2022/05/10 09:15:51;;;;;;;11.60;5.68;;;17.70;1.00;;;;;;6192338;23;20020;-90
2022/05/10 09:18:24;;;;;;;11.20;4.90;;;17.60;1.00;;;;;;6217295;23;20061;-90
2022/05/10 09:20:57;;;;;;;12.73;4.50;;;17.60;1.00;;;;;;6217181;23;20070;-89
2022/05/10 09:23:41;;;;;;;11.07;5.05;;;17.60;1.00;;;;;;6243953;23;20016;-90
2022/05/10 09:26:13;;;;;;;14.25;5.03;;;17.60;1.00;;;;;;6217031;23;20120;-90
2022/05/10 09:28:40;;;;;;;10.68;4.50;;;17.60;1.00;;;;;;6192184;23;20521;-90
2022/05/10 09:34:46;;;;;;;16.85;5.38;;;17.70;1.00;;;;;;6216544;23;20444;-88
2022/05/10 09:37:13;;;;;;;15.75;6.25;;;17.70;1.00;;;;;;6193893;23;20026;-90
2022/05/10 09:39:56;;;;;;;13.18;6.05;;;17.60;1.00;;;;;;6217311;23;20192;-90
2022/05/10 09:42:34;;;;;;;13.65;5.55;;;17.60;1.00;;;;;;6217282;23;20107;-90
2022/05/10 09:45:07;;;;;;;11.23;5.88;;;17.70;1.00;;;;;;6216522;23;20054;-90
2022/05/10 09:47:34;;;;;;;8.32;4.40;;;17.70;1.00;;;;;;6217454;23;20470;-90
2022/05/10 09:50:13;;;;;;;15.48;5.40;;;17.70;1.00;;;;;;6191590;23;20020;-90
2022/05/10 09:52:41;;;;;;;13.50;5.32;;;17.60;1.00;;;;;;6192009;23;20020;-89
2022/05/10 09:55:24;;;;;;;12.82;5.47;;;17.70;1.00;;;;;;6217194;23;20070;-90
2022/05/10 09:57:51;;;;;;;11.77;5.03;;;17.70;1.00;;;;;;6216499;23;20473;-90
2022/05/10 10:00:40;;;;;;;10.93;5.55;;;17.70;1.00;;;;;;6191963;23;20070;-89
2022/05/10 10:03:08;;;;;;;12.35;5.25;;;17.70;1.00;;;;;;6242929;23;20078;-90
2022/05/10 10:05:37;;;;;;;11.32;5.47;;;17.80;1.00;;;;;;6191451;23;20051;-90
2022/05/10 10:08:04;;;;;;;14.15;6.13;;;17.80;1.00;;;;;;6191780;23;20355;-90
2022/05/10 10:10:37;;;;;;;9.55;5.03;;;17.90;1.00;;;;;;6191330;23;20116;-89
2022/05/10 10:13:29;;;;;;;13.30;6.22;;;17.90;1.00;;;;;;6216705;23;20040;-90
2022/05/10 10:15:57;;;;;;;12.63;4.90;;;17.90;1.00;;;;;;6203221;23;20023;-90
2022/05/10 10:18:51;;;;;;;9.35;5.47;;;17.80;1.00;;;;;;6216219;23;20020;-89
2022/05/10 10:21:33;;;;;;;15.00;6.25;;;18.00;1.00;;;;;;6191172;23;20098;-90
2022/05/10 10:24:04;;;;;;;15.77;6.00;;;18.00;1.00;;;;;;6216927;23;20078;-89
2022/05/10 10:26:50;;;;;;;11.85;5.43;;;18.00;1.00;;;;;;6216392;23;20020;-90
2022/05/10 10:29:58;;;;;;;15.98;6.55;;;18.00;1.00;;;;;;6191357;23;20048;-90
2022/05/10 10:32:39;;;;;;;10.82;5.05;;;18.00;1.00;;;;;;6216169;23;20072;-89
2022/05/10 10:35:30;;;;;;;8.45;3.33;;;18.10;1.00;;;;;;6191859;23;20051;-90
2022/05/10 10:38:13;;;;;;;11.55;4.88;;;18.20;1.00;;;;;;6216407;23;20024;-89
2022/05/10 10:40:43;;;;;;;14.02;5.43;;;18.20;1.00;;;;;;6218664;23;20411;-90
2022/05/10 10:43:13;;;;;;;10.60;4.93;;;18.20;1.00;;;;;;6245786;23;20039;-89
2022/05/10 10:45:55;;;;;;;14.02;4.05;;;18.30;1.00;;;;;;6220348;23;20448;-88
2022/05/10 10:48:47;;;;;;;11.95;4.28;;;18.40;1.00;;;;;;6219235;23;20046;-89
2022/05/10 10:51:15;;;;;;;12.63;4.65;;;18.40;1.00;;;;;;6218439;23;20499;-89
2022/05/10 10:53:45;;;;;;;9.98;4.47;;;18.40;1.00;;;;;;6247387;23;20020;-90
2022/05/10 10:56:38;;;;;;;11.73;4.07;;;18.50;1.00;;;;;;6247417;23;20020;-90
2022/05/10 10:59:22;;;;;;;15.50;4.18;;;18.60;1.00;;;;;;6193848;23;20026;-90
2022/05/10 11:02:04;;;;;;;17.42;4.72;;;18.70;1.00;;;;;;6217987;23;20023;-89
2022/05/10 11:05:09;;;;;;;15.40;4.57;;;18.70;1.00;;;;;;6218654;23;20024;-91
2022/05/10 11:08:04;;;;;;;11.68;4.22;;;18.70;1.00;;;;;;6218307;23;20024;-92
2022/05/10 11:10:31;;;;;;;9.02;3.70;;;18.70;1.00;;;;;;6218297;23;20027;-89
2022/05/10 11:13:35;;;;;;;11.27;4.05;;;18.80;1.00;;;;;;6217777;23;20040;-90
2022/05/10 11:16:05;;;;;;;11.60;4.00;;;18.90;1.00;;;;;;6218248;23;20436;-90
2022/05/10 11:18:43;;;;;;;14.38;4.07;;;19.00;1.00;;;;;;6218395;23;20022;-89
2022/05/10 11:21:20;;;;;;;15.93;4.13;;;19.00;1.00;;;;;;6218278;23;20440;-89
2022/05/10 11:24:13;;;;;;;10.38;3.58;;;18.90;1.00;;;;;;6217732;23;20110;-90
2022/05/10 11:27:21;;;;;;;11.02;4.05;;;18.90;1.00;;;;;;6192725;23;20048;-90
2022/05/10 11:30:06;;;;;;;14.52;4.30;;;19.00;1.00;;;;;;6219812;23;20377;-90
2022/05/10 11:33:09;;;;;;;8.70;3.45;;;19.00;1.00;;;;;;6192924;23;20013;-90
2022/05/10 11:36:02;;;;;;;11.00;4.05;;;18.90;1.00;;;;;;6196992;23;20050;-90
2022/05/10 11:38:54;;;;;;;9.40;4.05;;;18.90;1.00;;;;;;6217627;23;20020;-90
2022/05/10 11:41:47;;;;;;;12.33;3.73;;;18.80;1.00;;;;;;6218366;23;20020;-90
2022/05/10 11:44:47;;;;;;;9.90;3.33;;;19.00;1.00;;;;;;6218403;23;20501;-90
2022/05/10 11:47:31;;;;;;;6.80;3.42;;;18.90;1.00;;;;;;6217724;23;20020;-91
2022/05/10 11:50:31;;;;;;;8.48;3.08;;;18.80;1.00;;;;;;6217658;23;20055;-90
2022/05/10 11:53:11;;;;;;;8.85;3.20;;;18.80;1.00;;;;;;6192615;23;20048;-90
2022/05/10 11:56:02;;;;;;;11.02;4.03;;;18.80;1.00;;;;;;6217724;23;20078;-90
2022/05/10 11:58:31;;;;;;;8.93;3.50;;;18.70;1.00;;;;;;6218236;23;20052;-91
2022/05/10 12:01:01;;;;;;;11.10;2.92;;;18.70;1.00;;;;;;6218292;23;20039;-91
2022/05/10 12:03:43;;;;;;;6.65;2.58;;;18.70;1.00;;;;;;6217761;23;20020;-90
2022/05/10 12:06:23;;;;;;;7.25;2.30;;;18.80;1.00;;;;;;6218233;23;20107;-91
2022/05/10 12:08:58;;;;;;;12.20;2.90;;;18.80;1.00;;;;;;6219757;23;20024;-90
2022/05/10 12:11:30;;;;;;;10.13;2.97;;;18.80;1.00;;;;;;6218179;23;20027;-90
2022/05/10 12:23:00;;;;;;;9.30;3.35;;;18.70;1.00;;;;;;6217853;23;20028;-91
2022/05/10 12:26:00;;;;;;;6.68;2.35;;;18.70;1.00;;;;;;6218076;22;20055;-90
2022/05/10 12:28:41;;;;;;;8.13;2.65;;;18.70;1.00;;;;;;6244527;23;20020;-90
2022/05/10 12:31:34;;;;;;;9.05;2.25;;;18.50;1.00;;;;;;6218306;23;20392;-90
2022/05/10 12:34:08;;;;;;;7.57;3.72;;;18.70;1.00;;;;;;6217054;23;20016;-89
2022/05/10 12:36:43;;;;;;;8.18;2.55;;;18.50;1.00;;;;;;6218835;23;20016;-89
2022/05/10 12:39:26;;;;;;;8.55;2.70;;;18.30;1.00;;;;;;6217865;23;20020;-92
2022/05/10 12:42:02;;;;;;;13.10;2.78;;;18.40;1.00;;;;;;6217741;23;20347;-90
2022/05/10 12:45:07;;;;;;;6.60;2.55;;;18.40;1.00;;;;;;6217095;23;20039;-89
2022/05/10 12:47:39;;;;;;;6.45;2.75;;;18.30;1.00;;;;;;6216557;23;20051;-87
2022/05/10 12:50:22;;;;;;;8.20;2.50;;;18.30;1.00;;;;;;6216573;23;20461;-89
2022/05/10 12:52:48;;;;;;;7.32;2.42;;;18.10;1.00;;;;;;6242987;23;20047;-88
2022/05/10 12:55:34;;;;;;;11.55;2.83;;;18.00;1.00;;;;;;6216327;23;20042;-89
2022/05/10 12:58:24;;;;;;;10.40;2.90;;;18.10;1.00;;;;;;6191917;23;20436;-89
2022/05/10 13:00:55;;;;;;;6.65;2.63;;;18.00;1.00;;;;;;6191735;23;20107;-89
2022/05/10 13:03:28;;;;;;;6.60;2.47;;;18.00;1.00;;;;;;6242785;23;20039;-89
2022/05/10 13:05:56;;;;;;;9.82;2.97;;;18.00;1.00;;;;;;6216271;23;20048;-91
2022/05/10 13:08:42;;;;;;;9.32;2.67;;;18.00;1.00;;;;;;6217568;23;20347;-90
2022/05/10 13:11:37;;;;;;;10.07;2.63;;;18.00;1.00;;;;;;6244534;23;20098;-90
2022/05/10 13:14:05;;;;;;;12.98;2.80;;;17.80;1.00;;;;;;6191872;23;20395;-90
2022/05/10 13:16:32;;;;;;;9.73;2.97;;;17.60;1.00;;;;;;6192407;23;20107;-89
2022/05/10 13:18:59;;;;;;;8.32;2.35;;;17.60;1.00;;;;;;6216645;23;20082;-88
2022/05/10 13:21:29;;;;;;;15.63;3.63;;;17.60;1.00;;;;;;6216208;23;20020;-89
2022/05/10 13:24:07;;;;;;;5.53;3.17;;;17.60;1.00;;;;;;6217559;23;20027;-89
2022/05/10 13:26:34;;;;;;;9.95;3.03;;;17.50;1.00;;;;;;6191179;23;20030;-88
2022/05/10 13:29:02;;;;;;;8.63;3.38;;;17.50;1.00;;;;;;6243371;23;20026;-89
2022/05/10 13:31:35;;;;;;;7.22;2.92;;;17.40;1.00;;;;;;6216630;23;20030;-88
2022/05/10 13:34:14;;;;;;;9.23;3.10;;;17.50;1.00;;;;;;6241260;23;20325;-88
2022/05/10 13:36:49;;;;;;;8.13;3.35;;;17.40;1.00;;;;;;6216875;23;20024;-89
2022/05/10 13:39:28;;;;;;;6.68;3.05;;;17.30;1.00;;;;;;6216826;23;20111;-89
2022/05/10 13:42:02;;;;;;;7.20;2.53;;;17.40;1.00;;;;;;6216242;23;20024;-88
2022/05/10 13:44:38;;;;;;;12.05;4.38;;;17.30;1.00;;;;;;6243130;23;20023;-88
2022/05/10 13:47:14;;;;;;;6.13;2.67;;;17.30;1.00;;;;;;6243162;23;20040;-88
2022/05/10 13:49:42;;;;;;;9.55;3.08;;;17.30;1.00;;;;;;6217488;23;20019;-88
2022/05/10 13:52:26;;;;;;;18.25;3.92;;;17.20;1.00;;;;;;6216239;23;20393;-88
2022/05/10 13:54:56;;;;;;;8.00;2.78;;;17.10;1.00;;;;;;6242181;23;20115;-89
2022/05/10 13:57:26;;;;;;;12.18;3.60;;;17.10;1.00;;;;;;6216663;23;20023;-88
2022/05/10 13:59:55;;;;;;;12.05;3.75;;;17.00;1.00;;;;;;6216992;23;20060;-87
2022/05/10 14:02:27;;;;;;;9.57;3.45;;;16.80;1.00;;;;;;6167634;23;20034;-91
2022/05/10 14:05:22;;;;;;;7.30;2.78;;;16.80;1.00;;;;;;6220595;23;20019;-92